EDT,Max TemperatureF,Mean TemperatureF,Min TemperatureF,Max Dew PointF,MeanDew PointF,Min DewpointF,Max Humidity, Mean Humidity, Min Humidity, Max Sea Level PressureIn, Mean Sea Level PressureIn, Min Sea Level PressureIn, Max VisibilityMiles, Mean VisibilityMiles, Min VisibilityMiles, Max Wind SpeedMPH, Mean Wind SpeedMPH, Max Gust SpeedMPH,PrecipitationIn, CloudCover, Events, WindDirDegrees
2013-8-1,81,76,72,76,74,72,100,88,79,30.04,29.96,29.91,10,8,2,24,10,34,0.44,6,Rain,223
2013-8-2,84,80,77,77,76,73,94,86,77,30.06,30.00,29.91,10,10,8,16,11,23,0.00,2,,233
2013-8-3,84,81,78,79,77,76,100,89,76,30.06,30.02,29.94,10,10,9,18,12,22,0.00,3,,223
2013-8-4,86,79,69,78,73,65,100,88,67,30.02,29.93,29.88,10,8,0,29,7,33,0.84,4,Fog-Rain,330
2013-8-5,82,73,64,67,62,54,97,66,45,30.09,30.05,30.01,10,10,10,9,3,,0.00,0,,78
2013-8-6,84,76,68,69,67,63,93,72,60,30.09,30.06,30.01,10,10,10,12,4,,0.00,0,,123
2013-8-7,84,76,71,73,71,68,93,77,67,30.12,30.09,30.06,10,10,10,10,5,,0.00,3,,121
2013-8-8,86,81,78,78,76,74,93,84,69,30.08,30.06,30.04,10,10,8,10,6,,0.00,1,,171
2013-8-9,86,83,80,78,77,75,94,86,74,30.10,30.07,30.04,10,10,8,22,13,26,0.00,1,,219
2013-8-10,86,82,75,80,78,74,97,89,77,30.14,30.09,30.04,10,10,8,20,13,25,0.00,2,,230
2013-8-11,86,80,75,80,77,74,97,89,76,30.12,30.08,30.04,10,9,8,12,7,,0.00,1,,231
2013-8-12,87,80,75,80,78,73,100,89,79,30.06,30.01,29.96,10,9,7,15,8,,0.00,1,,236
2013-8-13,86,80,75,81,78,73,100,92,82,29.96,29.89,29.81,10,7,2,22,12,32,0.18,4,Rain,239
2013-8-14,80,74,70,79,72,60,100,89,70,30.05,29.90,29.80,10,8,1,40,12,48,0.42,6,Rain,333
2013-8-15,70,67,64,68,66,60,100,97,71,30.12,30.08,30.04,10,5,1,13,7,20,0.51,8,Rain,31
2013-8-16,75,72,69,70,69,67,100,94,82,30.13,30.08,30.03,10,10,8,13,9,17,0.24,7,,18
2013-8-17,79,73,68,76,72,66,100,97,87,30.14,30.10,30.05,10,8,1,15,6,20,0.02,6,Rain,81
2013-8-18,82,76,71,76,74,72,100,94,76,30.20,30.15,30.12,10,9,5,10,6,,0.01,2,,239
2013-8-19,82,76,72,77,74,72,100,98,84,30.17,30.13,30.09,10,7,0,15,4,17,1.13,6,Fog-Rain,44
2013-8-20,82,77,72,75,73,71,100,88,74,30.18,30.15,30.09,10,10,7,9,5,,0.01,4,,66
2013-8-21,87,78,72,77,74,72,100,85,72,30.23,30.18,30.14,10,10,7,9,3,16,0.00,2,,136
2013-8-22,84,78,73,77,74,71,94,84,77,30.14,30.09,30.03,10,10,10,14,6,,0.00,0,,255
2013-8-23,86,78,71,77,73,68,100,86,67,30.02,29.99,29.93,10,8,1,17,8,28,0.85,2,Rain,246
2013-8-24,82,76,71,73,68,63,100,82,58,30.24,30.11,30.01,10,9,4,18,9,26,0.03,4,Rain,15
2013-8-25,80,72,64,65,63,61,93,72,58,30.33,30.28,30.24,10,10,4,16,9,25,0.00,1,,33
2013-8-26,82,73,64,66,63,55,97,73,39,30.27,30.21,30.14,10,10,10,9,5,,0.00,0,,11
2013-8-27,82,73,64,67,64,62,93,70,51,30.13,30.05,29.99,10,10,10,17,6,,0.00,0,,242
2013-8-28,84,78,75,76,73,68,90,82,74,30.01,29.96,29.91,10,9,7,17,11,,0.00,1,Rain,235
2013-8-29,88,78,73,76,74,70,94,83,72,29.99,29.89,29.85,10,6,1,16,10,23,0.21,5,Rain,332
2013-8-30,82,76,69,73,71,68,100,83,65,30.03,30.00,29.96,10,10,7,14,6,16,0.00,1,,52
2013-8-31,84,76,69,76,73,70,100,85,67,30.00,29.96,29.91,10,9,2,9,2,,0.00,1,,171